Tiempo atmosférico en la estación meteorológica de Badajoz Aeropuerto, Badajoz (185 m.)

Fecha
DESCASC
Temp. máxima en grados centígrados (hora)
DESCASC
Temp. mínima en grados centígrados (hora)
DESCASC
Temp. media en grados centígrados
DESCASC
Racha de viento máxima en m/sg (hora)
DESCASC
Velocidad máxima media en intervalos de 10 minutos(hora)
DESCASC
Precipitaciones diarias en mm
DESCASC
Precipitaciones de 00:00 a 06:00 en mm
DESCASC
Precipitaciones de 06:00 a 12:00 en mm
DESCASC
Precipitaciones de 12:00 a 18:00 en mm
DESCASC
Precipitaciones de 18:00 a 24:00 en mm
DESCASC
23-11-2017 23.5 (14:20) 10.9 (08:30) 17.2 10 (21:10) 5 (14:40) 0.8 0 0 0 0.8
22-11-2017 21.9 (16:30) 2 (08:00) 11.9 5.28 (10:20) 3.61 (10:10) 0 0 0 0 0
21-11-2017 23.9 (16:20) 1.2 (08:00) 12.5 4.17 (15:20) 2.78 (15:00) 0 0 0 0 0
20-11-2017 23.3 (16:20) 2.3 (08:40) 12.8 6.11 (11:50) 3.89 (12:20) 0 0 0 0 0
19-11-2017 22.5 (16:00) 2.3 (00:00) 12.4 5.56 (14:50) 3.06 (16:10) 0 0 0 0 0
18-11-2017 20.9 (16:20) 2.1 (00:00) 11.5 3.33 (13:40) 2.22 (13:40) 0 0 0 0 0
17-11-2017 21.6 (15:30) 1.9 (00:00) 11.8 3.61 (14:00) 2.5 (14:00) 0 0 0 0 0
16-11-2017 20.4 (16:20) 1.6 (00:00) 11 3.06 (10:30) 1.94 (10:20) 0 0 0 0 0
15-11-2017 18.9 (15:40) 1.7 (00:00) 10.3 4.17 (05:10) 3.61 (05:20) 0 0 0 0 0
14-11-2017 17.8 (16:40) 3.1 (00:00) 10.4 5.28 (12:10) 3.33 (00:20) 0 0 0 0 0
13-11-2017 21.6 (15:00) 8.2 (00:00) 14.9 8.33 (16:50) 5.56 (16:40) 0 0 0 0 0
12-11-2017 21.9 (16:10) 2.6 (00:00) 12.2 6.67 (17:20) 4.72 (17:20) 0 0 0 0 0
11-11-2017 22.4 (16:00) 3.4 (00:00) 12.9 4.72 (16:50) 3.33 (16:50) 0 0 0 0 0
10-11-2017 20.3 (17:00) 3.8 (00:00) 12 6.94 (13:30) 2.78 (14:30) 0 0 0 0 0
09-11-2017 17.3 (15:10) 6.3 (00:00) 11.8 7.78 (15:40) 5 (15:50) 0 0 0 0 0
08-11-2017 19.9 (16:20) 8.2 (00:00) 14 7.78 (17:40) 5.28 (18:10) 0 0 0 0 0
07-11-2017 22 (16:40) 4.1 (00:00) 13 5 (13:10) 3.33 (14:40) 0 0 0 0 0
06-11-2017 19.8 (15:30) 7.3 (00:00) 13.5 6.67 (14:00) 4.17 (14:00) 0 0 0 0 0
05-11-2017 20.1 (15:30) 10.5 (00:00) 15.3 8.61 (15:10) 6.11 (15:50) 0 0 0 0 0
04-11-2017 19 (15:20) 13.8 (00:00) 16.4 10.56 (13:10) 5.83 (14:10) 1.4 0.8 0 0.6 0
03-11-2017 21.5 (15:30) 14.6 (00:00) 18.1 8.06 (16:50) 4.72 (16:50) 4.2 1.8 0 0.4 2
02-11-2017 22.3 (16:00) 15.8 (06:10) 19 7.5 (17:20) 4.72 (17:20) 9.4 0.4 0 0 9
01-11-2017 24.9 (16:00) 8.8 (00:00) 16.8 6.39 (16:40) 3.33 (17:10) 0 0 0 0 0
31-10-2017 26.2 (15:30) 6.7 (00:00) 16.5 5 (16:40) 3.06 (16:30) 0 0 0 0 0
30-10-2017 26.7 (15:30) 6.2 (00:00) 16.5 7.22 (13:40) 4.72 (12:50) 0 0 0 0 0
29-10-2017 27.8 (15:50) 7.9 (00:00) 17.8 6.39 (12:40) 3.06 (13:20) 0 0 0 0 0
28-10-2017 30.5 (17:10) 8.8 (00:00) 19.7 6.67 (13:30) 4.44 (13:30) 0 0 0 0 0
27-10-2017 32 (16:50) 8.5 (00:00) 20.3 6.39 (16:20) 4.17 (16:40) 0 0 0 0 0
26-10-2017 30 (17:10) 9.8 (00:00) 19.9 6.11 (15:40) 4.17 (15:10) 0 0 0 0 0

Gráficas

Temp. máximas Temp. mínimas Temp. medias Precipitaciones Rachas de viento máximas Velocidades máximas media en intervalos de 10 minutos

Datos horarios

Fecha y hora oficial Temperatura (ºC) Velocidad del viento (km/h) Dirección del viento Racha (km/h) Dirección de racha Precipitación (mm) Presión (hPa) Tendencia (hPa) Humedad (%)
2017-11-24 23:00:00 15 5 Oeste 20 Sudoeste 0 997.5 0.2 52
2017-11-24 22:00:00 17.3 9 Sur 21 Sur 0 997.1 0.2 43
2017-11-24 21:00:00 18.2 8 Sur 15 Sudoeste 0 997.2 0.7 46
2017-11-24 20:00:00 16.9 5 Sur 8 Sur 0 997.3 0.9 54
2017-11-24 19:00:00 18 4 Sur 7 Sur 0 996.9 0.9 54
2017-11-24 18:00:00 20.4 4 Sudoeste 17 Oeste 0 996.5 0.4 49
2017-11-24 17:00:00 22.4 11 Oeste 21 Oeste 0 996.4 -0.7 43
2017-11-24 16:00:00 23.5 9 Oeste 28 Sudoeste 0 996 -1.6 38
2017-11-24 15:00:00 22.8 7 Sudoeste 24 Sudoeste 0 996.1 -2.3 37
2017-11-24 14:00:00 21.9 9 Sudoeste 23 Sudoeste 0 997.1 -1.4 39
2017-11-24 13:00:00 20.8 3 Sur 10 Sur 0 997.6 -0.7 56
2017-11-24 12:00:00 17.7 5 Este 10 Este 0 998.4 0.1 76
2017-11-24 11:00:00 15.1 6 Este 8 Este 0 998.5 1 86
2017-11-24 10:00:00 12.5 5 Este 8 Este 0 998.3 1.2 97
2017-11-24 09:00:00 10.9 3 Nordeste 8 Este 0 998.3 1.3 97
2017-11-24 08:00:00 10.7 5 Norte 9 Noroeste 0 997.5 1.1 96
2017-11-24 07:00:00 13.7 7 Sur 13 Sudeste 0 997.1 0 96
2017-11-24 06:00:00 11.4 4 Nordeste 10 Este 0 997 -0.2 94
2017-11-24 05:00:00 12.1 9 Este 12 Este 0 996.4 -0.8 92
2017-11-24 04:00:00 12.7 7 Este 9 Este 0 997.1 -0.2 95
2017-11-24 03:00:00 12.9 4 Nordeste 10 Este 0 997.2 -0.1 95
2017-11-24 02:00:00 12.9 6 Este 11 Este 0 997.2 -0.3 93
2017-11-24 01:00:00 12.9 8 Este 12 Este 0 997.3 -0.1 93
2017-11-24 00:00:00 13.7 6 Sudeste 10 Este 0 997.3 0.8 90
2017-11-23 23:00:00 14.1 4 Sudeste 8 Oeste 0 997.5 1.6 86
2017-11-23 22:00:00 14.6 8 Sudoeste 36 Sur 0.8 997.4 2 81
2017-11-23 21:00:00 17.6 13 Sur 30 Sur 0 996.5 1.4 52
2017-11-23 20:00:00 19.8 10 Sur 24 Sur 0 995.9 1.1 34
2017-11-23 19:00:00 20.6 10 Sur 29 Sur 0 995.4 0.4 29
2017-11-23 18:00:00 21.1 15 Sur 31 Sur 0 995.1 0.2 27
2017-11-23 17:00:00 21.6 14 Sur 27 Sur 0 994.8 -0.6 29
2017-11-23 16:00:00 21.1 3 Sudoeste 30 Sur 0 995 -1.1 38
2017-11-23 15:00:00 22.7 15 Sur 35 Sur 0 994.9 -1.7 29
2017-11-23 14:00:00 22.1 4 Sur 10 Sur 0 995.4 -0.9 37
2017-11-23 13:00:00 18.9 4 Este 7 Norte 0 996.1 0.3 53
2017-11-23 12:00:00 16.3 3 Este 5 Este 0 996.6 1.9 57
2017-11-23 11:00:00 13.9 3 Este 6 Norte 0 996.3 2 60
2017-11-23 10:00:00 12.5 2 Noroeste 5 Norte 0 995.8 2.1 58
2017-11-23 09:00:00 11.2 2 Este 5 Sudeste 0 994.7 1.6 62
2017-11-23 08:00:00 11.3 3 Sudoeste 5 Norte 0 994.3 1.3 62
2017-11-23 07:00:00 11.3 2 Nordeste 8 Norte 0 993.7 1 60
2017-11-23 06:00:00 11.5 3 Norte 5 Norte 0 993.1 0.6 63
2017-11-23 05:00:00 11.7 2 Sudeste 6 Este 0 993 0.6 59
2017-11-23 04:00:00 12.4 3 Este 7 Noroeste 0 992.7 0 55
2017-11-23 03:00:00 12.6 5 Sudeste 9 Este 0 992.5 0.2 49
2017-11-23 02:00:00 13 6 Sudeste 9 Este 0 992.4 0.3 50
2017-11-23 01:00:00 13.5 3 Nordeste 9 Sudoeste 0 992.7 0.4 49
2017-11-23 00:00:00 13.8 3 Norte 8 Nordeste 0 992.3 0.5 43
2017-11-22 23:00:00 17 4 Sudoeste 16 Sur 0 992.1 0.6 33
2017-11-22 22:00:00 16.8 3 Sudoeste 12 Sur 0 992.3 0.7 31
2017-11-22 21:00:00 18 7 Sur 17 Sur 0 991.8 0.4 30
2017-11-22 20:00:00 18.2 11 Sur 17 Sur 0 991.5 0.2 31
2017-11-22 19:00:00 16.8 5 Sur 8 Sur 0 991.6 0.1 41
2017-11-22 18:00:00 18.7 4 Sudoeste 6 Oeste 0 991.4 -0.7 38
2017-11-22 17:00:00 21 5 Noroeste 9 Noroeste 0 991.3 -1.6 30
2017-11-22 16:00:00 21.7 5 Nordeste 12 Nordeste 0 991.5 -2.1 29
2017-11-22 15:00:00 20.5 6 Norte 12 Nordeste 0 992.1 -2.5 32
2017-11-22 14:00:00 19.8 4 Norte 10 Este 0 992.9 -2.2 34
2017-11-22 13:00:00 17.5 7 Este 12 Este 0 993.6 -1.2 40
2017-11-22 12:00:00 14.1 7 Este 12 Nordeste 0 994.6 -0.2 50
2017-11-22 11:00:00 11 5 Este 19 Este 0 995.1 0.5 57
2017-11-22 10:00:00 6.2 7 Este 13 Este 0 994.8 0.1 69
2017-11-22 09:00:00 2.5 3 Nordeste 6 Este 0 994.8 0.1 87
2017-11-22 08:00:00 2.1 0 Calma 6 Oeste 0 994.6 -0.3 89
2017-11-22 07:00:00 2.5 3 Noroeste 6 Este 0 994.7 -0.5 85
2017-11-22 06:00:00 2.8 0 Calma 5 Noroeste 0 994.7 -0.8 86
2017-11-22 05:00:00 3.4 2 Este 4 Sudeste 0 994.9 -0.9 83
2017-11-22 04:00:00 4 2 Sudeste 5 Este 0 995.2 -1 78
2017-11-22 03:00:00 4.2 0 Calma 7 Sudeste 0 995.5 -1.2 76
2017-11-22 02:00:00 5.4 5 Este 7 Este 0 995.8 -1 74
2017-11-22 01:00:00 6.6 4 Sudeste 6 Este 0 996.2 -0.6 73
2017-11-22 00:00:00 7.4 3 Este 5 Este 0 996.7 -0.2 70
2017-11-21 23:00:00 8.9 2 Oeste 7 Este 0 996.8 0.2 65
2017-11-21 22:00:00 10 7 Este 9 Este 0 996.8 0.1 58
2017-11-21 21:00:00 12.6 5 Sur 13 Este 0 996.9 0.5 48
2017-11-21 20:00:00 15.2 4 Sudoeste 8 Sudoeste 0 996.6 -0.2 41
2017-11-21 19:00:00 17.2 5 Sudoeste 8 Oeste 0 996.7 0 37
2017-11-21 18:00:00 19.9 4 Norte 7 Nordeste 0 996.4 -0.8 30
2017-11-21 17:00:00 22.4 3 Norte 7 Este 0 996.8 -1.5 24
2017-11-21 16:00:00 23.3 4 Este 15 Este 0 996.7 -2.7 26
2017-11-21 15:00:00 22.6 10 Este 14 Sudeste 0 997.2 -3.2 27
2017-11-21 14:00:00 20.3 4 Nordeste 12 Este 0 998.3 -2.3 34
2017-11-21 13:00:00 18 7 Nordeste 13 Nordeste 0 999.4 -1.4 39
2017-11-21 12:00:00 14.3 5 Norte 10 Este 0 1000.4 -0.1 53
2017-11-21 11:00:00 10.1 6 Este 9 Este 0 1000.6 0.5 64
2017-11-21 10:00:00 5.5 2 Norte 4 Oeste 0 1000.8 1 80
2017-11-21 09:00:00 2.1 2 Sur 4 Sudeste 0 1000.5 0.9 90
2017-11-21 08:00:00 1.2 2 Este 4 Este 0 1000.1 0.5 91
2017-11-21 07:00:00 1.4 2 Este 6 Nordeste 0 999.8 -0.2 91
2017-11-21 06:00:00 2.4 4 Sur 5 Sur 0 999.6 -0.5 87
2017-11-21 05:00:00 3 0 Calma 4 Nordeste 0 999.6 -0.5 86
2017-11-21 04:00:00 3.9 2 Este 4 Nordeste 0 1000 -0.3 82
2017-11-21 03:00:00 4.5 3 Noroeste 6 Este 0 1000.1 -0.3 80
2017-11-21 02:00:00 6.2 2 Sudeste 6 Este 0 1000.1 -0.2 73
2017-11-21 01:00:00 6.6 3 Sudeste 4 Sudeste 0 1000.3 0.1 74
2017-11-21 00:00:00 7.9 3 Sudoeste 6 Noroeste 0 1000.4 0.6 69
2017-11-20 23:00:00 9.2 3 Sudoeste 6 Sudoeste 0 1000.3 0.9 64
2017-11-20 22:00:00 10.4 2 Sudoeste 7 Oeste 0 1000.2 1.2 61
2017-11-20 21:00:00 11.4 4 Noroeste 6 Noroeste 0 999.8 0.9 55
2017-11-20 20:00:00 13.5 3 Sudeste 5 Sudeste 0 999.4 0.4 49
2017-11-20 19:00:00 15.9 3 Sudeste 8 Este 0 999 -0.2 43
2017-11-20 18:00:00 19.3 8 Nordeste 13 Este 0 998.9 -0.7 35
2017-11-20 17:00:00 22.3 12 Este 17 Este 0 999 -1.3 28
2017-11-20 16:00:00 23.2 12 Este 18 Este 0 999.2 -2.2 25
2017-11-20 15:00:00 22.6 10 Este 17 Nordeste 0 999.6 -2.7 27
2017-11-20 14:00:00 21.1 10 Este 15 Nordeste 0 1000.3 -2 32
2017-11-20 13:00:00 18.6 8 Este 20 Este 0 1001.4 -0.4 40
2017-11-20 12:00:00 15.8 10 Nordeste 22 Nordeste 0 1002.3 1.1 47
2017-11-20 11:00:00 10.8 8 Este 13 Este 0 1002.3 1.5 65
2017-11-20 10:00:00 5.9 3 Nordeste 5 Nordeste 0 1001.8 1.3 82
2017-11-20 09:00:00 2.4 2 Norte 3 Noroeste 0 1001.2 1 88
2017-11-20 08:00:00 2.6 2 Sur 3 Sur 0 1000.8 1 89
2017-11-20 07:00:00 2.6 0 Calma 4 Este 0 1000.5 0.6 90
2017-11-20 06:00:00 2.8 3 Nordeste 5 Nordeste 0 1000.2 0.1 85
2017-11-20 05:00:00 4.5 3 Este 5 Sudeste 0 999.8 -0.3 77
2017-11-20 04:00:00 4.6 4 Sudeste 6 Sudeste 0 999.9 -0.1 78
2017-11-20 03:00:00 4.5 3 Este 4 Este 0 1000.1 -0.1 81
2017-11-20 02:00:00 5.4 0 Calma 3 Sudeste 0 1000.1 0 79
2017-11-20 01:00:00 6 0 Calma 3 Norte 0 1000 0.5 76
2017-11-20 00:00:00 7.1 0 Calma 5 Este 0 1000.2 1 71
2017-11-19 23:00:00 8.7 2 Norte 5 Sudeste 0 1000.1 1.3 64
2017-11-19 22:00:00 12 4 Sur 8 Sudeste 0 999.5 1.2 52
2017-11-19 21:00:00 12.1 3 Sudeste 5 Este 0 999.2 1.2 52
2017-11-19 20:00:00 12.6 2 Norte 5 Noroeste 0 998.8 0.9 51
2017-11-19 19:00:00 15.5 4 Noroeste 5 Este 0 998.3 0.6 41
2017-11-19 18:00:00 19.6 3 Este 12 Nordeste 0 998 0.1 32
2017-11-19 17:00:00 22 10 Nordeste 15 Nordeste 0 997.9 -0.7 25
2017-11-19 16:00:00 22.5 10 Nordeste 17 Nordeste 0 997.7 -1.7 27
2017-11-19 15:00:00 21.7 9 Nordeste 20 Nordeste 0 997.9 -1.9 30
2017-11-19 14:00:00 20.3 10 Nordeste 17 Este 0 998.6 -1.2 34
2017-11-19 13:00:00 18 9 Este 13 Este 0 999.4 -0.3 44
2017-11-19 12:00:00 14.6 5 Nordeste 10 Nordeste 0 999.8 0.5 58
2017-11-19 11:00:00 10.1 5 Este 9 Este 0 999.8 1.3 70
2017-11-19 10:00:00 5.7 2 Norte 4 Norte 0 999.7 1.6 86
2017-11-19 09:00:00 2.4 0 Calma 4 Este 0 999.3 1.6 93
2017-11-19 08:00:00 2.6 0 Calma 4 Sudeste 0 998.5 1.1 91
2017-11-19 07:00:00 2.8 2 Sur 5 Norte 0 998.1 0.6 93
2017-11-19 06:00:00 2.6 3 Norte 6 Nordeste 0 997.7 0.3 89
2017-11-19 05:00:00 3.7 3 Sudeste 7 Nordeste 0 997.4 0.1 87
2017-11-19 04:00:00 4.6 5 Sudeste 6 Sudeste 0 997.5 0 85
2017-11-19 03:00:00 4.5 4 Este 5 Este 0 997.4 0 87
2017-11-19 02:00:00 5 0 Calma 5 Noroeste 0 997.3 0 83
2017-11-19 01:00:00 6 3 Noroeste 4 Noroeste 0 997.5 0.4 77
2017-11-19 00:00:00 7.1 0 Calma 3 Sudeste 0 997.4 0.5 74
2017-11-18 23:00:00 9 3 Este 5 Oeste 0 997.3 0.6 70
2017-11-18 22:00:00 11.8 4 Oeste 7 Oeste 0 997.1 0.8 61
2017-11-18 21:00:00 11.4 4 Oeste 6 Oeste 0 996.9 0.8 62
2017-11-18 20:00:00 14.3 5 Sudoeste 7 Sudoeste 0 996.7 0.6 52
2017-11-18 19:00:00 15.7 5 Sudoeste 7 Sudoeste 0 996.3 0.3 47
2017-11-18 18:00:00 18.5 3 Sudoeste 8 Noroeste 0 996.1 -0.2 43
2017-11-18 17:00:00 20.3 6 Noroeste 9 Noroeste 0 996.1 -0.8 35
2017-11-18 16:00:00 20.6 4 Noroeste 10 Noroeste 0 996 -1.7 36
2017-11-18 15:00:00 19.9 5 Noroeste 10 Norte 0 996.3 -2 38
2017-11-18 14:00:00 18.5 6 Nordeste 12 Nordeste 0 996.9 -1.5 44
2017-11-18 13:00:00 16.4 6 Nordeste 10 Nordeste 0 997.7 -0.7 49
2017-11-18 12:00:00 13.4 5 Este 10 Nordeste 0 998.3 0.2 56
2017-11-18 11:00:00 10 3 Este 6 Sudeste 0 998.4 0.6 67
2017-11-18 10:00:00 5.9 3 Nordeste 5 Nordeste 0 998.4 1 82
2017-11-18 09:00:00 2.5 0 Calma 3 Sur 0 998.1 0.9 93
2017-11-18 08:00:00 2.4 2 Nordeste 3 Sudeste 0 997.8 0.7 91
2017-11-18 07:00:00 2.7 3 Sudeste 5 Este 0 997.4 0.1 92
2017-11-18 06:00:00 3.1 3 Este 5 Este 0 997.2 0.1 90
2017-11-18 05:00:00 3.5 2 Sur 4 Noroeste 0 997.1 -0.1 89
2017-11-18 04:00:00 3.9 3 Noroeste 4 Noroeste 0 997.3 -0.3 86
2017-11-18 03:00:00 4.7 4 Este 6 Nordeste 0 997.1 -0.5 84
2017-11-18 02:00:00 6.1 2 Sudoeste 4 Sudoeste 0 997.2 -0.6 80
2017-11-18 01:00:00 6.4 2 Este 4 Nordeste 0 997.6 0.2 79
2017-11-18 00:00:00 7.5 0 Calma 8 Sur 0 997.6 0.5 73
2017-11-17 23:00:00 8.4 4 Este 6 Sudoeste 0 997.8 1 70
2017-11-17 22:00:00 10.3 3 Sudoeste 6 Noroeste 0 997.4 0.7 65
2017-11-17 21:00:00 10.3 5 Noroeste 8 Noroeste 0 997.1 0.8 60
2017-11-17 20:00:00 14.6 3 Sudoeste 6 Oeste 0 996.8 0.5 47
2017-11-17 19:00:00 15.8 4 Oeste 5 Oeste 0 996.7 0 45
2017-11-17 18:00:00 19.1 2 Noroeste 8 Norte 0 996.3 -0.9 37
2017-11-17 17:00:00 21.1 6 Norte 10 Nordeste 0 996.3 -1.7 30
2017-11-17 16:00:00 21.6 6 Norte 9 Nordeste 0 996.7 -2 32
2017-11-17 15:00:00 21.2 4 Nordeste 13 Nordeste 0 997.2 -2.3 34
2017-11-17 14:00:00 19.2 9 Nordeste 13 Nordeste 0 998 -1.7 42
2017-11-17 13:00:00 17 5 Este 11 Nordeste 0 998.7 -0.8 48
2017-11-17 12:00:00 14.1 5 Este 12 Este 0 999.5 0.3 55
2017-11-17 11:00:00 10 3 Este 7 Este 0 999.7 1.1 69
2017-11-17 10:00:00 5.9 5 Nordeste 7 Nordeste 0 999.5 1.1 83
2017-11-17 09:00:00 2.2 0 Calma 3 Norte 0 999.2 1 94
2017-11-17 08:00:00 2.1 0 Calma 3 Sur 0 998.6 0.6 93
2017-11-17 07:00:00 2.2 0 Calma 4 Nordeste 0 998.4 0.1 92
2017-11-17 06:00:00 2.8 4 Este 5 Este 0 998.2 0 89
2017-11-17 05:00:00 3.5 3 Sudeste 4 Este 0 998 -0.3 91
2017-11-17 04:00:00 3.7 0 Calma 3 Nordeste 0 998.3 -0.2 88
2017-11-17 03:00:00 4.5 0 Calma 3 Noroeste 0 998.2 -0.3 84
2017-11-17 02:00:00 5 -- -- -- -- 0 998.3 -0.2 81
2017-11-17 01:00:00 6.3 0 Calma 3 Oeste 0 998.5 0.5 83
2017-11-17 00:00:00 7 0 Calma 4 Noroeste 0 998.5 0.6 79
2017-11-16 23:00:00 8.1 3 Noroeste 4 Sur 0 998.5 0.9 73
2017-11-16 22:00:00 9.7 3 Sudeste 5 Sudeste 0 998 0.8 67
2017-11-16 21:00:00 10.6 0 Calma 4 Oeste 0 997.9 1 64
2017-11-16 20:00:00 12.2 0 Calma 3 Oeste 0 997.6 0.7 58
2017-11-16 19:00:00 14.9 3 Noroeste 5 Sur 0 997.2 0.4 49
2017-11-16 18:00:00 18.1 2 Sudoeste 5 Este 0 996.9 -0.3 41
2017-11-16 17:00:00 20.1 4 Este 10 Este 0 996.9 -0.9 35
2017-11-16 16:00:00 20.1 5 Nordeste 9 Nordeste 0 996.8 -1.6 33
2017-11-16 15:00:00 19.7 4 Norte 9 Nordeste 0 997.2 -2.2 33
2017-11-16 14:00:00 18.7 4 Este 10 Este 0 997.8 -2 40
2017-11-16 13:00:00 16.1 5 Este 10 Este 0 998.4 -0.9 53
2017-11-16 12:00:00 13.1 5 Nordeste 10 Este 0 999.4 0.6 61
2017-11-16 11:00:00 9.5 4 Este 11 Nordeste 0 999.8 1.6 71
2017-11-16 10:00:00 5.9 4 Nordeste 6 Nordeste 0 999.3 1.6 85
2017-11-16 09:00:00 2.3 0 Calma 4 Sudoeste 0 998.8 1.3 96
2017-11-16 08:00:00 1.7 0 Calma 3 Oeste 0 998.2 0.8 94
2017-11-16 07:00:00 1.9 0 Calma 4 Este 0 997.7 0.3 91
2017-11-16 06:00:00 2.5 3 Este 5 Este 0 997.5 0.1 92
2017-11-16 05:00:00 2.8 3 Este 3 Este 0 997.4 0 87
2017-11-16 04:00:00 3.6 0 Calma 4 Este 0 997.4 -0.1 87
2017-11-16 03:00:00 4.4 3 Este 5 Este 0 997.4 0 86
2017-11-16 02:00:00 5.4 0 Calma 5 Sudoeste 0 997.4 0.1 86
2017-11-16 01:00:00 6.6 3 Sudoeste 5 Sur 0 997.5 0.2 88
2017-11-16 00:00:00 6.6 2 Oeste 6 Norte 0 997.4 0.4 83
2017-11-15 23:00:00 8.8 5 Sur 8 Sur 0 997.3 0.5 71
2017-11-15 22:00:00 8.7 5 Sudeste 7 Sudeste 0 997.3 0.7 78
2017-11-15 21:00:00 10.2 0 Calma 6 Sudoeste 0 997 0.7 72
2017-11-15 20:00:00 12.5 3 Sudoeste 5 Sudoeste 0 996.8 0.4 64
2017-11-15 19:00:00 14.2 3 Sudoeste 5 Sudoeste 0 996.6 -0.1 58
2017-11-15 18:00:00 16.8 3 Sur 5 Este 0 996.3 -0.8 51
2017-11-15 17:00:00 18.3 0 Calma 9 Norte 0 996.4 -1.2 46
2017-11-15 16:00:00 18.4 5 Nordeste 10 Norte 0 996.7 -1.6 47
2017-11-15 15:00:00 18 3 Norte 11 Noroeste 0 997.1 -2.1 46
2017-11-15 14:00:00 17.4 5 Oeste 12 Oeste 0 997.6 -1.7 37
2017-11-15 13:00:00 15.1 4 Oeste 8 Nordeste 0 998.3 -1.1 47
2017-11-15 12:00:00 13.2 5 Este 11 Este 0 999.2 0.3 53
2017-11-15 11:00:00 9.9 7 Nordeste 11 Nordeste 0 999.3 0.9 62
2017-11-15 10:00:00 6.4 2 Nordeste 5 Norte 0 999.4 1.5 78
2017-11-15 09:00:00 2.5 2 Este 4 Sudeste 0 998.9 1.4 91
2017-11-15 08:00:00 1.8 0 Calma 3 Noroeste 0 998.4 1.1 92
2017-11-15 07:00:00 2 2 Norte 6 Nordeste 0 997.9 0.6 85
2017-11-15 06:00:00 2.7 6 Este 15 Este 0 997.5 0.1 84
2017-11-15 05:00:00 3.5 9 Este 13 Este 0 997.3 0.1 82
2017-11-15 04:00:00 3.4 6 Sudeste 9 Sudeste 0 997.3 0.1 85
2017-11-15 03:00:00 3.6 3 Nordeste 8 Sudeste 0 997.4 0.3 82
2017-11-15 02:00:00 4.3 5 Este 8 Este 0 997.2 0.3 81
2017-11-15 01:00:00 4.8 0 Calma 3 Oeste 0 997.2 0.4 83
2017-11-15 00:00:00 5.7 0 Calma 4 Este 0 997.1 0.7 75
2017-11-14 23:00:00 7.2 3 Sudeste 6 Este 0 996.9 0.4 71
2017-11-14 22:00:00 8.6 0 Calma 4 Sur 0 996.8 0.7 63
2017-11-14 21:00:00 10 0 Calma 5 Sudoeste 0 996.4 0.6 58
2017-11-14 20:00:00 11 2 Oeste 8 Sur 0 996.5 0.7 54
2017-11-14 19:00:00 13.5 6 Sur 7 Sur 0 996.1 0.1 45
2017-11-14 18:00:00 15.9 4 Sudeste 7 Sudeste 0 995.8 -0.7 38
2017-11-14 17:00:00 17.6 3 Sur 12 Nordeste 0 995.8 -1.6 34
2017-11-14 16:00:00 17.5 3 Este 16 Este 0 996 -2.3 34
2017-11-14 15:00:00 16.6 6 Nordeste 14 Norte 0 996.5 -2.7 34
2017-11-14 14:00:00 16.3 6 Nordeste 14 Este 0 997.4 -2.2 36
2017-11-14 13:00:00 15.3 7 Este 19 Este 0 998.3 -1 38
2017-11-14 12:00:00 13.5 10 Este 17 Este 0 999.2 0.3 45
2017-11-14 11:00:00 10.9 8 Este 14 Este 0 999.6 1 58
2017-11-14 10:00:00 7.2 9 Este 10 Este 0 999.3 0.9 71
2017-11-14 09:00:00 3.6 3 Este 9 Sur 0 998.9 0.6 84
2017-11-14 08:00:00 3.6 2 Oeste 5 Oeste 0 998.6 0.5 81
2017-11-14 07:00:00 4.6 2 Oeste 8 Sudoeste 0 998.4 0.3 76
2017-11-14 06:00:00 4.8 3 Oeste 5 Sudoeste 0 998.3 0.2 75
2017-11-14 05:00:00 5.4 3 Oeste 6 Nordeste 0 998.1 0 73
2017-11-14 04:00:00 6.3 5 Este 8 Nordeste 0 998.1 -0.1 67
2017-11-14 03:00:00 7.1 6 Este 8 Este 0 998.1 0.2 65
2017-11-14 02:00:00 8.1 5 Este 9 Sudeste 0 998.1 0.5 61
2017-11-14 01:00:00 8.7 5 Sudeste 14 Nordeste 0 998.2 0.7 62
2017-11-14 00:00:00 9.5 3 Sudeste 15 Nordeste 0 997.9 1 62
2017-11-13 23:00:00 9.8 7 Norte 13 Norte 0 997.6 0.8 60
2017-11-13 22:00:00 11.4 9 Norte 12 Norte 0 997.5 1.1 54
2017-11-13 21:00:00 12.9 3 Oeste 19 Norte 0 996.9 0.8 49
2017-11-13 20:00:00 13.9 12 Norte 22 Norte 0 996.8 1 45
2017-11-13 19:00:00 16 17 Norte 23 Norte 0 996.4 0.6 39
2017-11-13 18:00:00 17.9 12 Norte 25 Norte 0 996.1 0 34
2017-11-13 17:00:00 20.3 18 Norte 30 Norte 0 995.8 -1 29
2017-11-13 16:00:00 21.3 18 Norte 26 Norte 0 995.8 -2 32
2017-11-13 15:00:00 21.3 18 Norte 26 Norte 0 996.1 -2.5 32
2017-11-13 14:00:00 20.8 7 Este 18 Este 0 996.8 -2 37
2017-11-13 13:00:00 19.3 4 Este 11 Este 0 997.8 -1 49
2017-11-13 12:00:00 16.7 6 Norte 11 Norte 0 998.6 0.2 57
2017-11-13 11:00:00 14.1 5 Noroeste 12 Noroeste 0 998.8 0.7 71
2017-11-13 10:00:00 11.3 8 Oeste 12 Oeste 0 998.8 0.8 81
2017-11-13 09:00:00 8.5 4 Oeste 13 Oeste 0 998.4 0.3 90
2017-11-13 08:00:00 8.2 4 Sudoeste 10 Oeste 0 998.1 0.1 89
2017-11-13 07:00:00 8.6 4 Sudoeste 12 Oeste 0 998 -0.3 88
2017-11-13 06:00:00 9 8 Oeste 13 Oeste 0 998.1 -0.6 87
2017-11-13 05:00:00 8.9 5 Sudoeste 12 Oeste 0 998 -0.6 87
2017-11-13 04:00:00 9.6 6 Oeste 12 Oeste 0 998.3 -0.8 86
2017-11-13 03:00:00 9.4 6 Oeste 14 Oeste 0 998.7 -0.8 88
2017-11-13 02:00:00 10.7 7 Oeste 16 Oeste 0 998.6 -0.9 81
2017-11-13 01:00:00 11.3 6 Sudoeste 17 Oeste 0 999.1 -0.1 78
2017-11-13 00:00:00 11.6 5 Oeste 14 Oeste 0 999.5 0.2 80
2017-11-12 23:00:00 11.9 8 Oeste 17 Oeste 0 999.5 0.4 78
2017-11-12 22:00:00 13.1 10 Oeste 17 Noroeste 0 999.2 0.4 73
2017-11-12 21:00:00 13.8 10 Oeste 16 Oeste 0 999.3 0.7 70
2017-11-12 20:00:00 15.7 9 Oeste 19 Oeste 0 999.1 0.6 62
2017-11-12 19:00:00 17 9 Oeste 16 Oeste 0 998.8 0.4 57
2017-11-12 18:00:00 18.8 9 Oeste 24 Oeste 0 998.6 -0.4 53
2017-11-12 17:00:00 20.6 15 Oeste 22 Noroeste 0 998.5 -1.6 45
2017-11-12 16:00:00 21.8 11 Oeste 21 Noroeste 0 998.4 -2.4 40
2017-11-12 15:00:00 20.6 10 Oeste 15 Oeste 0 999 -2.9 44
2017-11-12 14:00:00 18.8 6 Oeste 15 Noroeste 0 1000.1 -2.2 53
2017-11-12 13:00:00 16.8 6 Oeste 12 Noroeste 0 1000.8 -1.6 61
2017-11-12 12:00:00 14.4 5 Noroeste 10 Noroeste 0 1001.9 -0.2 72
2017-11-12 11:00:00 11.3 3 Oeste 10 Noroeste 0 1002.3 0.5 81
2017-11-12 10:00:00 8 5 Noroeste 10 Noroeste 0 1002.4 0.8 94
2017-11-12 09:00:00 3.9 2 Sudoeste 6 Sudoeste 0 1002.1 0.3 98
2017-11-12 08:00:00 3.3 0 Calma 7 Este 0 1001.8 0.1 97
2017-11-12 07:00:00 3.5 5 Este 6 Este 0 1001.6 -0.5 95
2017-11-12 06:00:00 4.4 0 Calma 4 Oeste 0 1001.8 -0.4 94
2017-11-12 05:00:00 5.1 2 Oeste 5 Sudeste 0 1001.7 -1 94
2017-11-12 04:00:00 5.7 0 Calma 3 Oeste 0 1002.1 -0.9 92
2017-11-12 03:00:00 6.1 2 Sudeste 3 Oeste 0 1002.2 -1 91
2017-11-12 02:00:00 6.4 4 Norte 6 Sudoeste 0 1002.7 -0.8 88
2017-11-12 01:00:00 7.6 0 Calma 5 Este 0 1003 -0.5 81
2017-11-12 00:00:00 9.5 0 Calma 5 Sudoeste 0 1003.2 -0.2 80
2017-11-11 23:00:00 11.4 3 Sudoeste 6 Sudoeste 0 1003.5 0.1 74
2017-11-11 22:00:00 11.9 0 Calma 6 Sudeste 0 1003.5 0.4 68
2017-11-11 21:00:00 13.8 3 Sudoeste 6 Oeste 0 1003.4 0.4 62
2017-11-11 20:00:00 15.8 4 Oeste 13 Este 0 1003.4 0.3 55
2017-11-11 19:00:00 17.6 5 Oeste 7 Oeste 0 1003.1 -0.3 53
2017-11-11 18:00:00 20.3 3 Oeste 12 Noroeste 0 1003 -1.1 44
2017-11-11 17:00:00 21.8 11 Noroeste 17 Noroeste 0 1003.1 -1.8 38
2017-11-11 16:00:00 22.2 5 Oeste 14 Oeste 0 1003.4 -2.3 40
2017-11-11 15:00:00 21.5 7 Oeste 12 Oeste 0 1004.1 -2.5 41
2017-11-11 14:00:00 19.8 4 Norte 10 Norte 0 1004.9 -1.9 46
2017-11-11 13:00:00 18.6 4 Nordeste 9 Norte 0 1005.7 -1.2 49
2017-11-11 12:00:00 15.4 3 Sudoeste 8 Oeste 0 1006.6 0 61
2017-11-11 11:00:00 12.3 2 Noroeste 5 Sudoeste 0 1006.8 0.4 71
2017-11-11 10:00:00 7.7 2 Oeste 6 Norte 0 1006.9 0.5 86
2017-11-11 09:00:00 4.2 2 Nordeste 5 Norte 0 1006.6 0.1 96
2017-11-11 08:00:00 3.4 0 Calma 6 Noroeste 0 1006.4 -0.2 94
2017-11-11 07:00:00 4.3 3 Sudoeste 6 Oeste 0 1006.4 -0.4 94
2017-11-11 06:00:00 4.1 2 Nordeste 4 Este 0 1006.5 -0.5 89
2017-11-11 05:00:00 5.3 3 Este 4 Sudeste 0 1006.6 -0.6 86
2017-11-11 04:00:00 6.9 0 Calma 4 Sudoeste 0 1006.8 -0.6 86
2017-11-11 03:00:00 7.4 0 Calma 6 Oeste 0 1007 -0.1 85
2017-11-11 02:00:00 9.3 4 Oeste 13 Oeste 0 1007.2 -0.1 75
2017-11-11 01:00:00 10.1 5 Oeste 7 Sudoeste 0 1007.4 0.4 72
2017-11-11 00:00:00 10 4 Sudoeste 6 Oeste 0 1007.1 0.4 72
2017-11-10 23:00:00 11.2 3 Sudoeste 9 Oeste 0 1007.3 0.8 66
2017-11-10 22:00:00 12.1 3 Sudoeste 10 Sudoeste 0 1007 0.7 60
2017-11-10 21:00:00 12.7 2 Sudoeste 10 Oeste 0 1006.7 0.6 59
2017-11-10 20:00:00 12.7 3 Noroeste 7 Sudoeste 0 1006.5 0.1 58
2017-11-10 19:00:00 15.1 4 Sur 7 Sur 0 1006.3 0 50
2017-11-10 18:00:00 18.2 4 Sur 7 Sudoeste 0 1006.1 -0.5 41
2017-11-10 17:00:00 20.3 2 Sur 10 Norte 0 1006.4 -0.7 34
2017-11-10 16:00:00 19.7 5 Nordeste 12 Sur 0 1006.3 -2.1 34
2017-11-10 15:00:00 19.5 7 Sudeste 17 Nordeste 0 1006.6 -2.1 35
2017-11-10 14:00:00 18.1 8 Norte 25 Nordeste 0 1007.1 -1.4 38
2017-11-10 13:00:00 16.4 6 Norte 12 Norte 0 1008.4 0.1 42
2017-11-10 12:00:00 14.3 4 Norte 13 Noroeste 0 1008.7 1 47
2017-11-10 11:00:00 11.2 5 Noroeste 8 Oeste 0 1008.5 1.1 56
2017-11-10 10:00:00 7.8 0 Calma 7 Este 0 1008.3 0.9 71
2017-11-10 09:00:00 4.7 2 Sur 8 Sudoeste 0 1007.7 0.9 83
2017-11-10 08:00:00 4.3 4 Sur 6 Sur 0 1007.4 0.8 79
2017-11-10 07:00:00 3.9 3 Sudeste 9 Oeste 0 1007.4 0.6 81
2017-11-10 06:00:00 4.5 5 Oeste 8 Oeste 0 1006.8 0.1 79
2017-11-10 05:00:00 4.9 3 Oeste 4 Oeste 0 1006.6 -0.1 76
2017-11-10 04:00:00 5.2 2 Oeste 7 Oeste 0 1006.8 0.1 76
2017-11-10 03:00:00 5.5 3 Sudoeste 6 Oeste 0 1006.7 0.2 75
2017-11-10 02:00:00 5.5 3 Oeste 7 Noroeste 0 1006.7 0.7 71
2017-11-10 01:00:00 7.3 4 Este 6 Sudeste 0 1006.7 0.9 64
2017-11-10 00:00:00 8 4 Noroeste 6 Noroeste 0 1006.5 1.3 60
2017-11-09 23:00:00 9 5 Este 9 Este 0 1006 1.1 55
2017-11-09 22:00:00 9.1 4 Norte 15 Norte 0 1005.8 1.5 54
2017-11-09 21:00:00 9.5 9 Norte 14 Norte 0 1005.2 1.2 56
2017-11-09 20:00:00 11.2 8 Norte 10 Norte 0 1004.9 1.4 46
2017-11-09 19:00:00 11.6 7 Norte 20 Nordeste 0 1004.3 0.8 43
2017-11-09 18:00:00 14.5 14 Norte 21 Norte 0 1004 0.3 34
2017-11-09 17:00:00 16.2 14 Norte 27 Norte 0 1003.5 -0.5 30
2017-11-09 16:00:00 17 18 Norte 28 Norte 0 1003.5 -1.5 31
2017-11-09 15:00:00 17.2 14 Nordeste 22 Nordeste 0 1003.7 -1.9 31
2017-11-09 14:00:00 16.6 16 Nordeste 26 Este 0 1004 -1.8 31
2017-11-09 13:00:00 15.4 14 Nordeste 24 Nordeste 0 1005 -0.9 36
2017-11-09 12:00:00 14.4 15 Nordeste 23 Nordeste 0 1005.6 0.3 41
2017-11-09 11:00:00 12.5 12 Nordeste 22 Nordeste 0 1005.8 1.4 51
2017-11-09 10:00:00 9.7 8 Norte 13 Norte 0 1005.9 2.2 65
2017-11-09 09:00:00 6.5 3 Noroeste 11 Noroeste 0 1005.3 2 76
2017-11-09 08:00:00 6.7 4 Noroeste 8 Oeste 0 1004.4 1.2 75
2017-11-09 07:00:00 6.5 5 Norte 13 Norte 0 1003.7 0.8 76
2017-11-09 06:00:00 7.2 9 Norte 13 Norte 0 1003.3 0.7 74
2017-11-09 05:00:00 7.5 6 Noroeste 10 Norte 0 1003.2 0.9 72
2017-11-09 04:00:00 8.9 3 Noroeste 8 Noroeste 0 1002.9 0.8 65
2017-11-09 03:00:00 9.5 6 Norte 13 Nordeste 0 1002.6 0.5 61
2017-11-09 02:00:00 10.2 2 Sudeste 10 Nordeste 0 1002.3 0.3 61
2017-11-09 01:00:00 11.4 2 Noroeste 6 Nordeste 0 1002.1 0.3 54
2017-11-09 00:00:00 11.4 6 Nordeste 10 Norte 0 1002.1 0.6 55
2017-11-08 23:00:00 11.9 6 Norte 20 Norte 0 1002 0.8 52
2017-11-08 22:00:00 11.7 10 Noroeste 15 Norte 0 1001.8 1.4 51
2017-11-08 21:00:00 11.9 11 Norte 20 Norte 0 1001.5 1.6 52
2017-11-08 20:00:00 13.4 15 Norte 19 Norte 0 1001.2 1.7 48
2017-11-08 19:00:00 14.7 13 Norte 28 Norte 0 1000.4 0.7 45
2017-11-08 18:00:00 17.7 17 Norte 28 Norte 0 999.9 0.1 44
2017-11-08 17:00:00 19.2 11 Norte 18 Norte 0 999.5 -1 43
2017-11-08 16:00:00 19.5 10 Norte 20 Nordeste 0 999.7 -1.4 43
2017-11-08 15:00:00 18.8 7 Norte 17 Norte 0 999.8 -1.9 46
2017-11-08 14:00:00 18.1 8 Nordeste 14 Norte 0 1000.5 -1.2 50
2017-11-08 13:00:00 16.9 6 Nordeste 15 Nordeste 0 1001.1 -0.5 56
2017-11-08 12:00:00 15.5 6 Nordeste 12 Norte 0 1001.7 0.5 60
2017-11-08 11:00:00 13.3 7 Norte 14 Norte 0 1001.7 1.2 69
2017-11-08 10:00:00 11.3 6 Noroeste 11 Noroeste 0 1001.6 1.5 80
2017-11-08 09:00:00 8.8 4 Oeste 9 Oeste 0 1001.2 1.4 87
2017-11-08 08:00:00 8.2 4 Sudoeste 8 Oeste 0 1000.5 0.9 89
2017-11-08 07:00:00 8.7 4 Sudoeste 10 Sudoeste 0 1000.1 0.6 87
2017-11-08 06:00:00 9 4 Sudoeste 10 Sudoeste 0 999.8 0.2 87
2017-11-08 05:00:00 9.2 5 Sudoeste 10 Oeste 0 999.6 0 85
2017-11-08 04:00:00 9.6 5 Sudoeste 10 Sudoeste 0 999.5 0 83
2017-11-08 03:00:00 10.6 3 Sudoeste 10 Oeste 0 999.6 0 76
2017-11-08 02:00:00 11.2 5 Oeste 10 Oeste 0 999.6 0.1 72
2017-11-08 01:00:00 11.6 5 Oeste 10 Sudoeste 0 999.5 0.6 69
2017-11-08 00:00:00 11.9 8 Oeste 13 Oeste 0 999.6 1 70
2017-11-07 23:00:00 12.8 6 Oeste 13 Oeste 0 999.5 1.3 70
2017-11-07 22:00:00 13.2 8 Oeste 16 Oeste 0 998.9 1 68
2017-11-07 21:00:00 14.6 8 Oeste 14 Sudoeste 0 998.6 1 58
2017-11-07 20:00:00 15.4 4 Sudoeste 9 Sudoeste 0 998.2 0.5 57
2017-11-07 19:00:00 16.9 4 Sudoeste 11 Sudoeste 0 997.9 0.1 52
2017-11-07 18:00:00 19.7 4 Sudoeste 11 Noroeste 0 997.6 -0.5 44
2017-11-07 17:00:00 21.6 5 Oeste 12 Oeste 0 997.7 -1.1 35
2017-11-07 16:00:00 21.2 3 Sudoeste 13 Noroeste 0 997.8 -1.8 38
2017-11-07 15:00:00 19.9 8 Noroeste 18 Noroeste 0 998.1 -2 40
2017-11-07 14:00:00 18.4 5 Sudoeste 18 Oeste 0 998.8 -1.3 46
2017-11-07 13:00:00 16.7 5 Oeste 10 Noroeste 0 999.6 -0.6 50
2017-11-07 12:00:00 14.5 3 Noroeste 8 Norte 0 1000.1 0.1 58
2017-11-07 11:00:00 12 2 Nordeste 5 Norte 0 1000.1 1.1 71
2017-11-07 10:00:00 8.7 2 Noroeste 4 Sur 0 1000.2 1.4 88
2017-11-07 09:00:00 4.5 3 Noroeste 6 Noroeste 0 1000 1.3 97
2017-11-07 08:00:00 4.3 0 Calma 5 Sur 0 999 0.3 95
2017-11-07 07:00:00 4.7 0 Calma 5 Sudeste 0 998.8 0.3 92
2017-11-07 06:00:00 5.7 3 Sudeste 5 Sudeste 0 998.7 0 94
2017-11-07 05:00:00 5.9 2 Norte 6 Este 0 998.7 -0.2 89
2017-11-07 04:00:00 6.7 4 Este 6 Este 0 998.5 -0.4 88
2017-11-07 03:00:00 7.8 3 Norte 5 Oeste 0 998.7 -0.4 82
2017-11-07 02:00:00 8.4 0 Calma 8 Nordeste 0 998.9 -0.2 79
2017-11-07 01:00:00 9.2 2 Nordeste 9 Noroeste 0 998.9 -0.1 77
2017-11-07 00:00:00 10.1 4 Oeste 8 Oeste 0 999.1 0.4 74
2017-11-06 23:00:00 10.6 8 Noroeste 10 Noroeste 0 999.1 0.2 73
2017-11-06 22:00:00 11.3 2 Sur 4 Oeste 0 999 0.3 70
2017-11-06 21:00:00 12 2 Nordeste 7 Oeste 0 998.7 0.1 71
2017-11-06 20:00:00 12.9 2 Oeste 4 Oeste 0 998.9 0.1 68
2017-11-06 19:00:00 14.9 0 Calma 6 Este 0 998.7 -0.5 58
2017-11-06 18:00:00 17.4 5 Este 13 Este 0 998.6 -1.2 45
2017-11-06 17:00:00 18.8 6 Este 19 Este 0 998.8 -2 39
2017-11-06 16:00:00 19.3 10 Este 20 Este 0 999.2 -2.5 38
2017-11-06 15:00:00 19.5 13 Este 23 Este 0 999.8 -2.9 38
2017-11-06 14:00:00 18.7 15 Este 24 Este 0 1000.8 -2.2 39
2017-11-06 13:00:00 17.6 12 Este 19 Este 0 1001.7 -1.3 47
2017-11-06 12:00:00 15.3 8 Nordeste 12 Nordeste 0 1002.7 -0.2 59
2017-11-06 11:00:00 13.2 5 Este 8 Este 0 1003 0.8 66
2017-11-06 10:00:00 11 5 Este 8 Este 0 1003 1 75
2017-11-06 09:00:00 7.7 3 Sudeste 6 Este 0 1002.9 0.8 89
2017-11-06 08:00:00 7.4 0 Calma 3 Nordeste 0 1002.2 0.2 87
2017-11-06 07:00:00 7.9 0 Calma 6 Nordeste 0 1002 -0.2 83
2017-11-06 06:00:00 8.4 0 Calma 5 Sudoeste 0 1002.1 -0.1 82
2017-11-06 05:00:00 9.1 2 Sur 7 Nordeste 0 1002 -0.3 80
2017-11-06 04:00:00 9.6 0 Calma 9 Nordeste 0 1002.2 0 76
2017-11-06 03:00:00 10 6 Nordeste 11 Nordeste 0 1002.2 0 75
2017-11-06 02:00:00 10.1 6 Norte 11 Norte 0 1002.3 0.2 75
2017-11-06 01:00:00 11 6 Noroeste 12 Noroeste 0 1002.2 0.2 71
2017-11-06 00:00:00 11.8 7 Noroeste 13 Noroeste 0 1002.2 0.4 66
2017-11-05 23:00:00 12.4 6 Oeste 17 Noroeste 0 1002.1 0.4 65
2017-11-05 22:00:00 12.8 10 Noroeste 14 Noroeste 0 1002 0.9 64
2017-11-05 21:00:00 13.4 8 Noroeste 16 Norte 0 1001.8 1.1 62
2017-11-05 20:00:00 14.2 11 Norte 19 Noroeste 0 1001.7 1.2 62
2017-11-05 19:00:00 15.2 10 Norte 18 Norte 0 1001.1 0.6 60
2017-11-05 18:00:00 17.7 10 Norte 23 Noroeste 0 1000.7 0.1 52
2017-11-05 17:00:00 19.3 19 Noroeste 27 Norte 0 1000.5 -0.4 46
2017-11-05 16:00:00 19.8 22 Noroeste 31 Norte 0 1000.5 -0.6 46
2017-11-05 15:00:00 19.8 19 Norte 28 Norte 0 1000.6 -1 51
2017-11-05 14:00:00 19.3 17 Norte 24 Norte 0 1000.9 -0.5 52
2017-11-05 13:00:00 18.7 18 Norte 24 Norte 0 1001.1 -0.2 53
2017-11-05 12:00:00 17.5 15 Noroeste 24 Noroeste 0 1001.6 0.8 59
2017-11-05 11:00:00 14.8 12 Oeste 21 Noroeste 0 1001.4 1.5 78
2017-11-05 10:00:00 13.7 9 Oeste 15 Oeste 0 1001.3 2 83
2017-11-05 09:00:00 11.1 9 Oeste 14 Oeste 0 1000.8 1.7 96
2017-11-05 08:00:00 10.7 7 Oeste 18 Oeste 0 999.9 1.3 96
2017-11-05 07:00:00 10.9 10 Oeste 18 Noroeste 0 999.3 1.1 94
2017-11-05 06:00:00 11.6 8 Oeste 16 Oeste 0 999.1 1 93
2017-11-05 05:00:00 11.7 8 Oeste 17 Oeste 0 998.6 0.8 93
2017-11-05 04:00:00 12.1 10 Oeste 19 Oeste 0 998.2 0.6 92
2017-11-05 03:00:00 12.5 8 Oeste 15 Sudoeste 0 998.1 0.9 91
2017-11-05 02:00:00 12.9 8 Oeste 19 Oeste 0 997.8 1.1 91
2017-11-05 01:00:00 13.2 9 Oeste 17 Oeste 0 997.6 1.6 89
2017-11-05 00:00:00 13.8 9 Oeste 17 Oeste 0 997.2 2 87
2017-11-04 23:00:00 14.2 9 Oeste 20 Oeste 0 996.7 2.1 87
2017-11-04 22:00:00 14.9 8 Oeste 23 Oeste 0 996 2.4 86
2017-11-04 21:00:00 15.4 13 Oeste 23 Oeste 0 995.2 2.5 82
2017-11-04 20:00:00 16 10 Oeste 19 Oeste 0 994.6 2.5 79
2017-11-04 19:00:00 17.3 12 Oeste 25 Oeste 0 993.6 2.2 73
2017-11-04 18:00:00 17.7 15 Oeste 30 Oeste 0 992.7 1.9 73
2017-11-04 17:00:00 18 16 Oeste 29 Noroeste 0 992.1 1.4 72
2017-11-04 16:00:00 18 16 Oeste 33 Oeste 0 991.4 0.6 72
2017-11-04 15:00:00 18.2 17 Oeste 37 Oeste 0 990.8 0 74
2017-11-04 14:00:00 17.3 17 Oeste 38 Sudoeste 0.6 990.7 0 80
2017-11-04 13:00:00 17.6 13 Sudoeste 32 Oeste 0 990.8 0.3 78
2017-11-04 12:00:00 17.8 15 Oeste 28 Oeste 0 990.8 1.1 74
2017-11-04 11:00:00 17.2 10 Sudoeste 24 Oeste 0 990.7 1.8 79
2017-11-04 10:00:00 15.9 8 Sudoeste 20 Sudoeste 0 990.5 2.4 86
2017-11-04 09:00:00 15.2 8 Sudoeste 19 Sudoeste 0 989.7 1.5 91
2017-11-04 08:00:00 14.5 6 Sudoeste 16 Sudoeste 0 988.9 1.3 93
2017-11-04 07:00:00 14.8 5 Sudoeste 22 Sudoeste 0 988.1 0.1 93
2017-11-04 06:00:00 15.3 7 Sudoeste 22 Sudoeste 0 988.2 0.6 90
2017-11-04 05:00:00 15.2 8 Sur 28 Sur 0.2 987.6 -0.3 91
2017-11-04 04:00:00 15.5 12 Sur 26 Sur 0 988 -1 89
2017-11-04 03:00:00 15.6 16 Sur 30 Sur 0 987.6 -1.8 88
2017-11-04 02:00:00 15.2 14 Sur 26 Sur 0.2 987.9 -1.6 91
2017-11-04 01:00:00 15.4 20 Sur 33 Sur 0.4 989 -0.6 91
2017-11-04 00:00:00 15.4 10 Sur 18 Sur 0 989.4 -0.1 92
2017-11-03 23:00:00 14.9 6 Sudeste 20 Sur 0.4 989.5 -0.1 94
2017-11-03 22:00:00 15.2 12 Sur 21 Sur 1 989.6 0.1 90
2017-11-03 21:00:00 15.8 7 Sudeste 13 Sudeste 0 989.5 -0.1 92
2017-11-03 20:00:00 16 6 Este 10 Este 0 989.6 0.1 93
2017-11-03 19:00:00 16.3 3 Sudoeste 6 Sudoeste 0.6 989.5 0.3 90
2017-11-03 18:00:00 16.6 2 Sudoeste 17 Oeste 0.4 989.6 0 87
2017-11-03 17:00:00 18 12 Oeste 29 Oeste 0 989.5 -1 82
2017-11-03 16:00:00 20.7 6 Sudeste 17 Este 0 989.2 -2.4 58
2017-11-03 15:00:00 20.8 4 Sur 15 Sudeste 0 989.6 -3 57
2017-11-03 14:00:00 20.7 8 Sudeste 19 Este 0 990.5 -2.4 64
2017-11-03 13:00:00 20.6 8 Este 16 Este 0 991.6 -1 68
2017-11-03 12:00:00 19.2 5 Sur 13 Sudeste 0 992.6 0.3 71
2017-11-03 11:00:00 17.4 3 Sudeste 11 Oeste 0 992.9 1 82
2017-11-03 10:00:00 15.9 4 Sur 12 Sudeste 0 992.6 0.9 90
2017-11-03 09:00:00 15 3 Sudeste 5 Sudeste 0 992.3 0.6 96
2017-11-03 08:00:00 14.7 3 Sur 8 Sudeste 0 991.9 0.2 95
2017-11-03 07:00:00 15.1 3 Sudeste 6 Sur 0 991.7 -0.2 96
2017-11-03 06:00:00 15.3 4 Este 7 Este 0 991.7 -0.5 98
2017-11-03 05:00:00 15.1 0 Calma 10 Noroeste 0 991.7 -0.7 98
2017-11-03 04:00:00 15.6 5 Sur 15 Sur 0 991.9 -1 94
2017-11-03 03:00:00 15.8 5 Sur 10 Sur 0.2 992.2 -1 94
2017-11-03 02:00:00 15.7 4 Este 10 Sur 0 992.4 -0.9 97
2017-11-03 01:00:00 15.9 6 Sudeste 23 Sudoeste 1.6 992.9 -0.5 97
2017-11-03 00:00:00 15.9 9 Sudoeste 23 Sudoeste 4 993.2 0 93
2017-11-02 23:00:00 16.1 2 Sudoeste 7 Sudoeste 1 993.3 0 97
2017-11-02 22:00:00 16.3 4 Sudoeste 13 Oeste 1.4 993.4 0.8 95
2017-11-02 21:00:00 16.3 7 Oeste 16 Oeste 1.6 993.2 1 95
2017-11-02 20:00:00 17.8 9 Oeste 17 Noroeste 1 993.3 1.1 84
2017-11-02 19:00:00 20.7 7 Sudoeste 20 Sudoeste 0 992.6 0 60
2017-11-02 18:00:00 21.3 9 Sur 27 Sur 0 992.2 -0.8 54
2017-11-02 17:00:00 22 15 Sur 26 Sur 0 992.2 -1.8 51
2017-11-02 16:00:00 22.2 15 Sur 26 Sur 0 992.6 -2 57
2017-11-02 15:00:00 21.1 9 Sur 20 Sur 0 993 -2.3 63
2017-11-02 14:00:00 19.6 6 Sur 18 Sur 0 994 -1.6 73
2017-11-02 13:00:00 20.4 10 Sur 19 Sudeste 0 994.6 -1.1 65
2017-11-02 12:00:00 19.9 7 Sur 15 Sudeste 0 995.3 0.1 68
2017-11-02 11:00:00 19.1 7 Sur 14 Sur 0 995.6 0.8 74
2017-11-02 10:00:00 17.8 4 Sur 12 Sudeste 0 995.7 0.9 84
2017-11-02 09:00:00 16.9 6 Sudeste 13 Sudeste 0 995.2 0.6 86
2017-11-02 08:00:00 16.5 6 Sudeste 11 Sur 0 994.8 0 84
2017-11-02 07:00:00 16.3 4 Sur 9 Sudeste 0 994.8 0 85
2017-11-02 06:00:00 16 3 Nordeste 9 Este 0 994.6 -0.5 87
2017-11-02 05:00:00 16.6 0 Calma 8 Sudeste 0 994.8 -0.4 87
2017-11-02 04:00:00 17.2 4 Sur 8 Sudeste 0.4 994.8 -0.7 88
2017-11-02 03:00:00 17.8 4 Sur 11 Sur 0 995.1 -0.8 81
2017-11-02 02:00:00 17.9 3 Sur 10 Sur 0 995.2 -0.4 77
2017-11-02 01:00:00 18 4 Sudoeste 12 Sur 0 995.5 0.2 74
2017-11-02 00:00:00 19 9 Sur 18 Sur 0 995.9 0.7 70
2017-11-01 23:00:00 19.1 8 Sur 17 Sur 0 995.6 0.5 70
2017-11-01 22:00:00 18.9 7 Sur 13 Sur 0 995.3 0.3 67
2017-11-01 21:00:00 19.1 4 Sur 9 Sudoeste 0 995.2 0.5 63
2017-11-01 20:00:00 19.7 3 Sudoeste 11 Sudoeste 0 995.1 0.5 56
2017-11-01 19:00:00 21.1 4 Sur 17 Sur 0 995 0.2 51
2017-11-01 18:00:00 22.6 8 Sur 19 Sur 0 994.7 -0.4 44
2017-11-01 17:00:00 23.4 9 Sur 23 Sur 0 994.6 -1.1 42
2017-11-01 16:00:00 24.8 7 Sudoeste 20 Sudoeste 0 994.8 -1.9 39
2017-11-01 15:00:00 23.8 7 Sur 19 Sudoeste 0 995.1 -2.6 40
2017-11-01 14:00:00 23.1 5 Nordeste 19 Este 0 995.7 -2.4 49
2017-11-01 13:00:00 23 5 Sudeste 12 Este 0 996.7 -1.7 50
2017-11-01 12:00:00 21 6 Este 18 Este 0 997.7 -0.4 56
2017-11-01 11:00:00 18.5 11 Este 17 Este 0 998.1 0.5 64
2017-11-01 10:00:00 14.9 9 Este 13 Este 0 998.4 1.1 76
2017-11-01 09:00:00 9.8 3 Este 5 Este 0 998.1 1.1 91
2017-11-01 08:00:00 8.8 0 Calma 0 Calma 0 997.6 0.6 90
2017-11-01 07:00:00 9.2 0 Calma 0 Calma 0 997.3 0.4 88
2017-11-01 06:00:00 9.7 0 Calma 2 Nordeste 0 997 0.2 85
2017-11-01 05:00:00 10.4 0 Calma 8 Este 0 997 0.1 82
2017-11-01 04:00:00 10.8 5 Este 9 Este 0 996.9 -0.2 82
2017-11-01 03:00:00 11.3 3 Este 6 Noroeste 0 996.8 0 74
2017-11-01 02:00:00 12.5 4 Oeste 7 Sudoeste 0 996.9 0.1 69
2017-11-01 01:00:00 12.9 5 Sudeste 7 Sudeste 0 997.1 0.8 66
2017-11-01 00:00:00 14 2 Sudeste 10 Sudoeste 0 996.8 0.7 60
2017-10-31 23:00:00 14.6 3 Oeste 7 Oeste 0 996.8 1 62
2017-10-31 22:00:00 15.7 2 Oeste 6 Noroeste 0 996.3 0.9 59
2017-10-31 21:00:00 17.7 0 Calma 8 Sudoeste 0 996.1 1 50
2017-10-31 20:00:00 19.2 4 Sudoeste 8 Oeste 0 995.8 0.8 46
2017-10-31 19:00:00 21.7 4 Noroeste 8 Norte 0 995.4 0.4 39
2017-10-31 18:00:00 23.8 7 Norte 13 Norte 0 995.1 -0.1 34
2017-10-31 17:00:00 25.6 8 Nordeste 18 Nordeste 0 995 -0.6 32
2017-10-31 16:00:00 25.7 4 Norte 14 Norte 0 995 -1.2 33
2017-10-31 15:00:00 25.5 5 Norte 12 Norte 0 995.2 -1.6 32
2017-10-31 14:00:00 25 5 Este 10 Nordeste 0 995.6 -1.5 33
2017-10-31 13:00:00 23.4 4 Sudeste 12 Este 0 996.2 -0.8 38
2017-10-31 12:00:00 21.1 7 Este 13 Este 0 996.8 0.4 42
2017-10-31 11:00:00 17.2 8 Este 12 Nordeste 0 997.1 1.2 52
2017-10-31 10:00:00 13 6 Nordeste 9 Este 0 997 1.7 64
2017-10-31 09:00:00 7.9 3 Sudeste 5 Sudeste 0 996.4 1.4 82
2017-10-31 08:00:00 7 0 Calma 4 Sudeste 0 995.9 1.2 84
2017-10-31 07:00:00 7.3 3 Sudeste 4 Este 0 995.3 0.7 84
2017-10-31 06:00:00 7.2 3 Nordeste 4 Este 0 995 0.4 82
2017-10-31 05:00:00 7.9 0 Calma 4 Sudeste 0 994.7 0.1 75
2017-10-31 04:00:00 8.9 0 Calma 5 Este 0 994.6 -0.1 68
2017-10-31 03:00:00 9.6 0 Calma 4 Este 0 994.6 -0.1 71
2017-10-31 02:00:00 10 0 Calma 3 Noroeste 0 994.6 0 64
2017-10-31 01:00:00 10.9 3 Sudoeste 4 Sudoeste 0 994.7 0.3 64
2017-10-31 00:00:00 13.7 2 Sur 5 Sur 0 994.7 0.7 50
2017-10-30 23:00:00 14.4 2 Noroeste 4 Nordeste 0 994.6 1 49
2017-10-30 22:00:00 15.7 4 Nordeste 5 Nordeste 0 994.4 1.1 43
2017-10-30 21:00:00 16.8 0 Calma 9 Nordeste 0 994 1.3 43
2017-10-30 20:00:00 18.4 8 Nordeste 13 Nordeste 0 993.6 1 36
2017-10-30 19:00:00 19.9 8 Nordeste 12 Nordeste 0 993.3 0.6 34
2017-10-30 18:00:00 23.9 8 Este 19 Sudeste 0 992.7 -0.3 28
2017-10-30 17:00:00 26 14 Este 21 Nordeste 0 992.6 -0.8 23
2017-10-30 16:00:00 26.2 13 Nordeste 22 Este 0 992.7 -1.7 24
2017-10-30 15:00:00 26.3 13 Este 21 Este 0 993 -2.3 23
2017-10-30 14:00:00 25.7 14 Este 26 Este 0 993.4 -2.4 23
2017-10-30 13:00:00 24.1 17 Este 24 Este 0 994.4 -1.6 27
2017-10-30 12:00:00 21.1 14 Nordeste 20 Nordeste 0 995.3 -0.3 35
2017-10-30 11:00:00 17.2 8 Nordeste 14 Nordeste 0 995.8 0.8 44
2017-10-30 10:00:00 13.2 5 Este 8 Este 0 996 1.3 57
2017-10-30 09:00:00 7.5 0 Calma 4 Norte 0 995.6 0.9 86
2017-10-30 08:00:00 6.9 0 Calma 5 Sur 0 995 0.6 82
2017-10-30 07:00:00 6.9 3 Nordeste 5 Nordeste 0 994.7 0 85
2017-10-30 06:00:00 7.2 2 Este 4 Sudeste 0 994.7 -0.1 81
2017-10-30 05:00:00 8.3 3 Sur 5 Nordeste 0 994.4 -0.6 76
2017-10-30 04:00:00 8.8 5 Nordeste 6 Nordeste 0 994.7 -0.7 77
2017-10-30 03:00:00 9.9 4 Este 6 Noroeste 0 994.8 -0.9 70
2017-10-30 02:00:00 12.6 0 Calma 8 Oeste 0 995 -1 59
2017-10-30 01:00:00 13.9 4 Oeste 8 Oeste 0 995.4 -0.8 50
2017-10-30 00:00:00 14.2 4 Oeste 7 Oeste 0 995.7 -0.4 52
2017-10-29 23:00:00 15.5 4 Oeste 7 Oeste 0 996 -0.1 51
2017-10-29 22:00:00 16.6 3 Oeste 5 Sur 0 996.2 0.2 47
2017-10-29 21:00:00 18.2 2 Noroeste 4 Noroeste 0 996.1 0.2 46
2017-10-29 20:00:00 19.2 0 Calma 6 Oeste 0 996.1 -0.1 45
2017-10-29 19:00:00 22.1 5 Oeste 9 Oeste 0 996 -0.7 38
2017-10-29 18:00:00 25.5 3 Sudeste 10 Sudeste 0 995.9 -1.2 30
2017-10-29 17:00:00 26.8 8 Nordeste 14 Este 0 996.2 -1.9 26
2017-10-29 16:00:00 27.6 6 Nordeste 13 Este 0 996.7 -2.5 26
2017-10-29 15:00:00 26.9 6 Nordeste 15 Nordeste 0 997.1 -2.9 26
2017-10-29 14:00:00 26.1 7 Este 17 Nordeste 0 998.1 -2.4 31
2017-10-29 13:00:00 24.5 9 Nordeste 23 Nordeste 0 999.2 -1.3 33
2017-10-29 12:00:00 22.3 9 Nordeste 15 Este 0 1000 -0.2 38
2017-10-29 11:00:00 19.5 8 Nordeste 13 Este 0 1000.5 0.6 45
2017-10-29 10:00:00 14.6 4 Este 8 Este 0 1000.5 0.8 62
2017-10-29 09:00:00 8.8 0 Calma 5 Nordeste 0 1000.2 0.6 86
2017-10-29 08:00:00 7.9 2 Nordeste 6 Sudeste 0 999.9 0.5 79
2017-10-29 07:00:00 9.7 5 Sudeste 6 Sudeste 0 999.7 0.4 74
2017-10-29 06:00:00 10.6 3 Sudeste 4 Sur 0 999.6 0.2 71
2017-10-29 05:00:00 10 0 Calma 3 Oeste 0 999.4 -0.2 74
2017-10-29 04:00:00 10.5 3 Oeste 5 Noroeste 0 999.3 -0.5 71
2017-10-29 03:00:00 11.1 3 Sudeste 9 Sudeste 0 999.4 -0.3 68
2017-10-29 02:00:00 13.4 2 Este 4 Este 0 999.6 0 59
2017-10-29 01:00:00 16.1 0 Calma 6 Norte 0 999.7 0.1 53
2017-10-29 00:00:00 16.1 6 Noroeste 8 Noroeste 0 999.6 0.4 50
2017-10-28 23:00:00 18.1 4 Este 6 Este 0 999.5 0.7 45
2017-10-28 22:00:00 19 3 Este 6 Nordeste 0 999.6 1.1 44
2017-10-28 21:00:00 20.5 3 Este 6 Este 0 999.2 0.7 39
2017-10-28 20:00:00 24 4 Sudoeste 7 Sudeste 0 998.8 0.2 32
2017-10-28 19:00:00 27.7 5 Sudeste 10 Este 0 998.5 -0.5 23
2017-10-28 18:00:00 30.1 6 Este 19 Este 0 998.5 -1.4 20
2017-10-28 17:00:00 30.3 10 Este 19 Este 0 998.6 -2.3 20
2017-10-28 16:00:00 29.2 7 Nordeste 20 Este 0 999 -2.6 21
2017-10-28 15:00:00 28.6 11 Este 21 Este 0 999.9 -2 23
2017-10-28 14:00:00 26.9 14 Este 24 Este 0 1000.9 -1.3 27
2017-10-28 13:00:00 24.3 12 Nordeste 18 Nordeste 0 1001.6 -0.5 34
2017-10-28 12:00:00 19.9 8 Este 12 Nordeste 0 1001.9 -0.1 48
2017-10-28 11:00:00 15.9 4 Sudeste 12 Este 0 1002.2 0.7 58
2017-10-28 10:00:00 10.1 5 Este 6 Sudeste 0 1002.1 0.7 80
2017-10-28 09:00:00 8.9 3 Este 5 Sudeste 0 1002 0.8 81
2017-10-28 08:00:00 9.8 2 Sudeste 5 Este 0 1001.5 0.2 77
2017-10-28 07:00:00 10.6 0 Calma 5 Noroeste 0 1001.4 0 73
2017-10-28 06:00:00 11.4 0 Calma 5 Sudeste 0 1001.2 -0.6 70
2017-10-28 05:00:00 11.7 3 Sudeste 5 Sudeste 0 1001.3 -0.8 70
2017-10-28 04:00:00 12.7 0 Calma 4 Oeste 0 1001.4 -1 65
2017-10-28 03:00:00 14 3 Sudeste 6 Noroeste 0 1001.8 -0.8 59
2017-10-28 02:00:00 15.3 2 Oeste 7 Este 0 1002.1 -0.6 54
2017-10-28 01:00:00 17.2 4 Oeste 10 Oeste 0 1002.4 -0.2 52
2017-10-28 00:00:00 17.4 4 Oeste 6 Oeste 0 1002.6 0 51
2017-10-27 23:00:00 18.4 2 Sudoeste 9 Noroeste 0 1002.7 0.2 46
2017-10-27 22:00:00 19.6 0 Calma 5 Norte 0 1002.6 0.2 41
2017-10-27 21:00:00 21.6 0 Calma 19 Noroeste 0 1002.6 0.1 39
2017-10-27 20:00:00 25.3 5 Sur 6 Sur 0 1002.5 -0.2 28
2017-10-27 19:00:00 29.4 4 Sudeste 16 Nordeste 0 1002.4 -0.7 22
2017-10-27 18:00:00 31.5 13 Nordeste 21 Nordeste 0 1002.5 -1.3 16
2017-10-27 17:00:00 31.9 14 Este 23 Nordeste 0 1002.7 -2.1 17
2017-10-27 16:00:00 31.6 11 Nordeste 21 Nordeste 0 1003.1 -2.3 20
2017-10-27 15:00:00 30.3 12 Nordeste 23 Nordeste 0 1003.8 -1.9 22
2017-10-27 14:00:00 28.1 11 Este 19 Nordeste 0 1004.8 -0.7 27
2017-10-27 13:00:00 24.2 9 Nordeste 15 Este 0 1005.4 0.3 36
2017-10-27 12:00:00 20.3 5 Este 11 Este 0 1005.7 1.4 49
2017-10-27 11:00:00 15.4 6 Este 8 Este 0 1005.5 1.4 62
2017-10-27 10:00:00 9.3 0 Calma 6 Este 0 1005.1 1 86
2017-10-27 09:00:00 8.5 5 Este 7 Este 0 1004.3 0.6 86
2017-10-27 08:00:00 9.4 2 Sudeste 4 Sudeste 0 1004.1 0.4 85
2017-10-27 07:00:00 9.8 0 Calma 3 Noroeste 0 1004.1 0.2 84
2017-10-27 06:00:00 10.1 0 Calma 4 Sudeste 0 1003.7 -0.3 83
2017-10-27 05:00:00 11.1 4 Sudeste 4 Este 0 1003.7 -0.4 76
2017-10-27 04:00:00 12.6 0 Calma 8 Sudeste 0 1003.9 -0.4 68
2017-10-27 03:00:00 12.8 4 Este 9 Este 0 1004 -0.2 69
2017-10-27 02:00:00 14.2 0 Calma 4 Oeste 0 1004.1 0 63
2017-10-27 01:00:00 14.9 2 Sudoeste 4 Sur 0 1004.3 0.5 62
2017-10-27 00:00:00 16 0 Calma 3 Noroeste 0 1004.2 0.7 60
2017-10-26 23:00:00 17.8 3 Nordeste 4 Sudeste 0 1004.1 1.2 51
2017-10-26 22:00:00 19 3 Este 5 Este 0 1003.8 1.3 47
2017-10-26 21:00:00 20.9 2 Nordeste 3 Noroeste 0 1003.5 1.2 44
2017-10-26 20:00:00 24.1 2 Norte 5 Sudeste 0 1002.9 0.5 36
2017-10-26 19:00:00 27.8 3 Sudeste 13 Este 0 1002.5 0 25
2017-10-26 18:00:00 29.6 10 Este 20 Este 0 1002.3 -0.8 23
2017-10-26 17:00:00 29.8 13 Este 21 Este 0 1002.4 -1.3 23
2017-10-26 16:00:00 29.1 15 Este 22 Este 0 1002.5 -1.9 25
2017-10-26 15:00:00 28.2 14 Este 21 Este 0 1003.1 -1.5 28
2017-10-26 14:00:00 26.3 14 Este 20 Este 0 1003.7 -0.7 33
2017-10-26 13:00:00 23.3 11 Este 15 Este 0 1004.4 0.4 38
2017-10-26 12:00:00 20.2 11 Este 15 Este 0 1004.6 1.2 49
2017-10-26 11:00:00 16 7 Este 10 Este 0 1004.4 1.2 65
2017-10-26 10:00:00 11 3 Este 6 Este 0 1004 1.2 85
2017-10-26 09:00:00 9.9 4 Este 5 Este 0 1003.4 1 87
2017-10-26 08:00:00 10.2 2 Este 5 Este 0 1003.2 0.8 83
2017-10-26 07:00:00 10.7 5 Este 9 Este 0 1002.8 0.3 80
2017-10-26 06:00:00 11.2 5 Este 7 Este 0 1002.4 0.1 83
2017-10-26 05:00:00 12.2 5 Sur 7 Sur 0 1002.4 -0.1 87
2017-10-26 04:00:00 12.6 4 Este 5 Este 0 1002.5 -0.1 77
2017-10-26 03:00:00 14 2 Sur 4 Este 0 1002.3 -0.1 77
2017-10-26 02:00:00 15 0 Calma 5 Sudoeste 0 1002.5 0.8 69
2017-10-26 01:00:00 16.3 3 Sudoeste 6 Sudoeste 0 1002.6 1.6 63
2017-10-26 00:00:00 17.5 3 Sudoeste 8 Sur 0 1002.4 2.2 56